createdAt,value
2022-07-27T03:02:38.215Z,21.00
2022-07-27T03:05:07.268Z,21.00
2022-07-27T03:07:35.493Z,21.00
2022-07-27T03:10:03.351Z,20.90
2022-07-27T03:12:31.348Z,21.00
2022-07-27T03:14:59.236Z,20.80
2022-07-27T03:17:27.168Z,20.80
2022-07-27T03:19:56.349Z,20.70
2022-07-27T03:22:24.221Z,20.70
2022-07-27T03:24:52.050Z,20.60
2022-07-27T03:27:19.886Z,20.70
2022-07-27T03:29:47.747Z,20.70
2022-07-27T03:32:15.704Z,20.80
2022-07-27T03:34:43.574Z,20.80
2022-07-27T03:37:12.804Z,20.80
2022-07-27T03:39:40.665Z,20.70
2022-07-27T03:42:08.710Z,20.60
2022-07-27T03:44:36.887Z,20.70
2022-07-27T03:47:04.823Z,20.70
2022-07-27T03:49:32.961Z,20.70
2022-07-27T03:52:00.947Z,20.60
2022-07-27T03:54:30.148Z,20.60
2022-07-27T03:56:58.014Z,20.70
2022-07-27T03:59:27.538Z,20.60
2022-07-27T04:01:55.580Z,20.60
2022-07-27T04:04:23.434Z,20.50
2022-07-27T04:06:51.270Z,20.50
2022-07-27T04:09:19.837Z,20.50
2022-07-27T04:11:51.194Z,20.40
2022-07-27T04:14:19.934Z,20.40
2022-07-27T04:16:48.037Z,20.40
2022-07-27T04:19:16.283Z,20.40
2022-07-27T04:21:44.321Z,20.30
2022-07-27T04:24:12.279Z,20.20
2022-07-27T04:26:40.662Z,20.20
2022-07-27T04:29:10.341Z,20.30
2022-07-27T04:31:38.383Z,20.20
2022-07-27T04:34:06.273Z,20.20
2022-07-27T04:36:34.123Z,20.30
2022-07-27T04:39:02.065Z,20.30
2022-07-27T04:41:30.562Z,20.30
2022-07-27T04:44:00.186Z,20.20
2022-07-27T04:46:30.432Z,20.30
2022-07-27T04:48:58.554Z,20.30
2022-07-27T04:51:28.997Z,20.40
2022-07-27T04:54:00.499Z,20.40
2022-07-27T04:56:28.364Z,20.30
2022-07-27T04:58:56.334Z,20.40
2022-07-27T05:01:25.505Z,20.40
2022-07-27T05:03:55.589Z,20.30
2022-07-27T05:06:23.509Z,20.30
2022-07-27T05:08:51.382Z,20.30
2022-07-27T05:11:19.237Z,20.30
2022-07-27T05:13:47.087Z,20.30
2022-07-27T05:16:14.975Z,20.30
2022-07-27T05:18:42.966Z,20.30
2022-07-27T05:21:12.162Z,20.30
2022-07-27T05:23:40.087Z,20.30
2022-07-27T05:26:08.008Z,20.20
2022-07-27T05:28:35.889Z,20.10
2022-07-27T05:31:03.759Z,20.20
2022-07-27T05:33:31.619Z,20.20
2022-07-27T05:35:59.531Z,20.20
2022-07-27T05:38:28.768Z,20.30
2022-07-27T05:40:56.920Z,20.30
2022-07-27T05:43:24.795Z,20.30
2022-07-27T05:45:52.711Z,20.20
2022-07-27T05:48:20.625Z,20.20
2022-07-27T05:50:48.522Z,20.10
2022-07-27T05:53:16.438Z,20.10
2022-07-27T05:55:58.000Z,20.10
2022-07-27T05:58:27.759Z,20.10
2022-07-27T06:00:56.322Z,20.00
2022-07-27T06:03:24.422Z,20.00
2022-07-27T06:05:52.517Z,20.10
2022-07-27T06:08:19.412Z,20.20
2022-07-27T06:10:48.578Z,20.30
2022-07-27T06:13:16.555Z,20.30
2022-07-27T06:15:44.410Z,20.30
2022-07-27T06:18:18.125Z,20.40
2022-07-27T06:20:46.794Z,20.40
2022-07-27T06:23:14.776Z,20.50
2022-07-27T06:25:42.671Z,20.50
2022-07-27T06:28:12.023Z,20.70
2022-07-27T06:30:42.487Z,20.70
2022-07-27T06:33:10.355Z,20.70
2022-07-27T06:35:38.945Z,20.80
2022-07-27T06:38:07.366Z,20.80
2022-07-27T06:40:35.393Z,20.80
2022-07-27T06:43:03.414Z,20.80
2022-07-27T06:45:32.715Z,20.70
2022-07-27T06:48:00.567Z,20.70
2022-07-27T06:50:28.408Z,20.70
2022-07-27T06:52:56.290Z,20.80
2022-07-27T06:55:24.183Z,21.00
2022-07-27T06:57:52.042Z,21.10
2022-07-27T07:00:19.955Z,21.10
2022-07-27T07:02:59.046Z,21.20
2022-07-27T07:05:29.022Z,21.20
2022-07-27T07:07:57.729Z,21.20
2022-07-27T07:10:27.351Z,21.30
2022-07-27T07:12:56.523Z,21.30
2022-07-27T07:15:26.156Z,21.40
2022-07-27T07:17:55.679Z,21.50
2022-07-27T07:20:24.129Z,21.50
2022-07-27T07:22:52.225Z,21.60
2022-07-27T07:25:20.637Z,21.70
2022-07-27T07:27:49.007Z,21.70
2022-07-27T07:30:17.291Z,21.70
2022-07-27T07:32:45.368Z,21.80
2022-07-27T07:35:14.729Z,22.00
2022-07-27T07:37:42.622Z,22.10
2022-07-27T07:43:00.928Z,22.10
2022-07-27T07:45:29.966Z,22.00
2022-07-27T07:47:58.863Z,22.10
2022-07-27T07:50:28.791Z,22.10
2022-07-27T07:52:56.975Z,22.10
2022-07-27T07:55:26.525Z,22.00
2022-07-27T07:57:55.212Z,21.70
2022-07-27T08:00:23.763Z,21.70
2022-07-27T08:02:53.592Z,21.60
2022-07-27T08:05:22.151Z,21.60
2022-07-27T08:07:51.894Z,21.80
2022-07-27T08:10:22.258Z,21.90
2022-07-27T08:12:52.902Z,22.00
2022-07-27T08:15:21.371Z,22.20
2022-07-27T08:17:59.135Z,22.30
2022-07-27T08:20:28.314Z,22.40
2022-07-27T08:22:57.587Z,22.50
2022-07-27T08:25:25.538Z,22.80
2022-07-27T08:27:55.592Z,23.00
2022-07-27T08:30:24.987Z,23.10
2022-07-27T08:32:55.218Z,23.20
2022-07-27T08:35:23.716Z,23.30
2022-07-27T08:37:52.138Z,23.40
2022-07-27T08:40:40.931Z,23.50
2022-07-27T08:43:09.810Z,23.50
2022-07-27T08:45:38.549Z,23.40
2022-07-27T08:48:07.125Z,23.40
2022-07-27T08:50:35.590Z,23.40
2022-07-27T08:53:05.584Z,23.40
2022-07-27T08:55:37.091Z,23.30
2022-07-27T08:58:05.877Z,23.30
2022-07-27T09:00:36.364Z,23.30
2022-07-27T09:03:04.518Z,23.40
2022-07-27T09:05:36.801Z,23.40
2022-07-27T09:08:13.117Z,23.40
2022-07-27T09:10:43.314Z,23.30
2022-07-27T09:13:19.722Z,23.30
2022-07-27T09:16:16.416Z,23.20
2022-07-27T09:18:37.914Z,23.30
2022-07-27T09:21:13.616Z,23.40
2022-07-27T09:23:44.961Z,23.40
2022-07-27T09:26:31.320Z,23.40
2022-07-27T09:29:02.335Z,23.40
2022-07-27T09:31:30.969Z,23.30
2022-07-27T09:34:00.686Z,23.40
2022-07-27T09:36:29.819Z,23.50
2022-07-27T09:39:03.034Z,23.60
2022-07-27T09:41:43.028Z,23.70
2022-07-27T09:46:59.813Z,24.00
2022-07-27T09:49:29.498Z,24.10
2022-07-27T09:52:01.040Z,24.20
2022-07-27T09:54:42.106Z,24.10
2022-07-27T09:57:11.797Z,24.10
2022-07-27T09:59:39.840Z,24.10
2022-07-27T10:02:07.958Z,24.10
2022-07-27T10:04:36.077Z,24.10
2022-07-27T10:07:08.169Z,24.00
2022-07-27T10:09:39.483Z,23.90
2022-07-27T10:12:08.051Z,23.70
2022-07-27T10:14:37.367Z,23.70
2022-07-27T10:17:06.851Z,23.80
2022-07-27T10:19:42.521Z,24.00
2022-07-27T10:22:10.370Z,24.10
2022-07-27T10:24:38.303Z,24.20
2022-07-27T10:27:23.239Z,24.90
2022-07-27T10:29:52.790Z,25.60
2022-07-27T10:32:28.791Z,26.10
2022-07-27T10:34:56.802Z,26.30
2022-07-27T10:37:29.039Z,26.30
2022-07-27T10:40:13.344Z,26.30
2022-07-27T10:42:41.716Z,26.10
2022-07-27T10:45:12.906Z,25.80
2022-07-27T10:47:44.625Z,25.80
2022-07-27T10:50:33.273Z,26.30
2022-07-27T10:53:11.149Z,26.90
2022-07-27T10:55:47.295Z,27.20
2022-07-27T10:58:43.828Z,27.40
2022-07-27T11:01:14.484Z,27.00
2022-07-27T11:03:49.393Z,26.50
2022-07-27T11:06:37.830Z,26.00
2022-07-27T11:11:58.921Z,25.40
2022-07-27T11:14:31.518Z,25.50
2022-07-27T11:19:55.137Z,26.30
2022-07-27T11:25:25.044Z,27.00
2022-07-27T11:27:53.063Z,27.80
2022-07-27T11:30:25.457Z,27.80
2022-07-27T11:32:55.108Z,27.50
2022-07-27T11:35:24.429Z,27.40
2022-07-27T11:38:00.685Z,27.10
2022-07-27T11:40:56.244Z,27.00
2022-07-27T11:43:38.426Z,26.70
2022-07-27T11:46:18.169Z,26.40
2022-07-27T11:49:17.725Z,26.10
2022-07-27T11:51:44.170Z,26.00
2022-07-27T11:54:14.161Z,25.90
2022-07-27T11:56:46.066Z,25.80
2022-07-27T11:59:17.006Z,26.10
2022-07-27T12:01:48.009Z,26.70
2022-07-27T12:04:19.989Z,27.60
2022-07-27T12:06:58.632Z,28.30
2022-07-27T12:09:27.245Z,29.20
2022-07-27T12:12:01.971Z,29.30
2022-07-27T12:14:38.795Z,29.20
2022-07-27T12:17:21.414Z,30.10
2022-07-27T12:20:02.932Z,30.00
2022-07-27T12:22:33.866Z,29.70
2022-07-27T12:25:05.688Z,28.70
2022-07-27T12:27:39.044Z,28.60
2022-07-27T12:30:10.912Z,28.40
2022-07-27T12:32:41.938Z,28.20
2022-07-27T12:35:25.673Z,28.10
2022-07-27T12:38:01.611Z,28.10
2022-07-27T12:40:30.857Z,28.00
2022-07-27T12:43:00.564Z,28.00
2022-07-27T12:45:34.333Z,29.10
2022-07-27T12:48:10.998Z,30.40
2022-07-27T12:50:42.155Z,31.30
2022-07-27T12:53:11.121Z,31.80
2022-07-27T12:55:39.687Z,32.60
2022-07-27T12:58:10.575Z,33.60
2022-07-27T13:00:38.920Z,34.10
2022-07-27T13:03:07.643Z,34.20
2022-07-27T13:05:36.676Z,34.60
2022-07-27T13:08:06.637Z,34.50
2022-07-27T13:10:36.365Z,35.00
2022-07-27T13:13:04.757Z,35.70
2022-07-27T13:15:32.759Z,35.80
2022-07-27T13:18:00.733Z,36.50
2022-07-27T13:20:28.803Z,37.20
2022-07-27T13:22:56.739Z,37.80
2022-07-27T13:25:26.006Z,38.30
2022-07-27T13:27:55.067Z,38.10
2022-07-27T13:30:24.476Z,36.00
2022-07-27T13:32:52.616Z,34.20
2022-07-27T13:35:20.855Z,33.10
2022-07-27T13:37:48.717Z,34.00
2022-07-27T13:40:16.561Z,35.00
2022-07-27T13:42:45.916Z,36.20
2022-07-27T13:45:13.814Z,37.10
2022-07-27T13:47:42.709Z,36.90
2022-07-27T13:50:18.392Z,35.80
2022-07-27T13:52:47.381Z,34.20
2022-07-27T13:55:16.230Z,33.20
2022-07-27T13:57:46.521Z,32.40
2022-07-27T14:00:15.640Z,31.60
2022-07-27T14:02:43.699Z,30.90
2022-07-27T14:05:14.299Z,30.60
2022-07-27T14:07:43.367Z,30.50
2022-07-27T14:10:30.511Z,30.40
2022-07-27T14:13:08.135Z,30.50
2022-07-27T14:15:54.327Z,30.30
2022-07-27T14:18:27.713Z,30.20
2022-07-27T14:20:56.996Z,29.90
2022-07-27T14:23:25.341Z,29.80
2022-07-27T14:25:53.711Z,29.30
2022-07-27T14:28:23.943Z,29.10
2022-07-27T14:30:52.381Z,28.80
2022-07-27T14:33:20.308Z,28.50
2022-07-27T14:35:48.598Z,28.40
2022-07-27T14:38:29.719Z,28.20
2022-07-27T14:40:59.035Z,28.10
2022-07-27T14:43:28.819Z,28.40
2022-07-27T14:45:56.747Z,28.60
2022-07-27T14:48:37.207Z,28.70
2022-07-27T14:51:12.430Z,28.70
2022-07-27T14:53:40.290Z,28.90
2022-07-27T14:56:08.490Z,29.00
2022-07-27T14:58:37.717Z,28.90
2022-07-27T15:01:05.702Z,28.70
2022-07-27T15:03:33.694Z,28.40
2022-07-27T15:06:01.518Z,28.40
2022-07-27T15:08:29.682Z,28.80
2022-07-27T15:10:58.669Z,30.20
2022-07-27T15:13:26.680Z,32.00
2022-07-27T15:15:57.880Z,34.10
2022-07-27T15:18:25.886Z,34.80
2022-07-27T15:20:53.715Z,36.20
2022-07-27T15:23:22.277Z,37.30
2022-07-27T15:25:50.642Z,38.10
2022-07-27T15:28:18.521Z,38.50
2022-07-27T15:30:46.396Z,38.90
2022-07-27T15:33:15.571Z,38.30
2022-07-27T15:35:43.455Z,38.70
2022-07-27T15:38:11.692Z,39.10
2022-07-27T15:40:41.370Z,39.60
2022-07-27T15:43:11.820Z,39.70
2022-07-27T15:45:40.648Z,40.00
2022-07-27T15:48:10.010Z,39.60
2022-07-27T15:50:40.755Z,39.20
2022-07-27T15:53:08.844Z,37.40
2022-07-27T15:55:38.597Z,35.80
2022-07-27T15:58:07.377Z,34.20
2022-07-27T16:00:39.498Z,33.10
2022-07-27T16:03:09.691Z,32.40
2022-07-27T16:05:39.182Z,31.70
2022-07-27T16:08:09.011Z,31.00
2022-07-27T16:10:37.504Z,30.40
2022-07-27T16:13:05.956Z,29.70
2022-07-27T16:15:51.958Z,29.20
2022-07-27T16:18:20.230Z,29.10
2022-07-27T16:20:49.538Z,29.00
2022-07-27T16:23:19.156Z,29.00
2022-07-27T16:26:07.586Z,29.10
2022-07-27T16:28:39.630Z,28.70
2022-07-27T16:31:10.216Z,28.50
2022-07-27T16:33:38.566Z,28.40
2022-07-27T16:36:08.973Z,28.30
2022-07-27T16:38:37.361Z,28.20
2022-07-27T16:41:07.447Z,28.00
2022-07-27T16:43:37.458Z,27.60
2022-07-27T16:46:08.611Z,27.40
2022-07-27T16:48:42.516Z,27.40
2022-07-27T16:51:13.796Z,27.40
2022-07-27T16:53:43.411Z,27.30
2022-07-27T16:56:12.157Z,27.20
2022-07-27T16:58:40.442Z,27.10
2022-07-27T17:01:08.687Z,27.00
2022-07-27T17:03:37.508Z,27.00
2022-07-27T17:06:07.017Z,26.90
2022-07-27T17:08:36.777Z,26.70
2022-07-27T17:11:06.500Z,26.70
2022-07-27T17:13:35.088Z,26.60
2022-07-27T17:16:03.684Z,26.70
2022-07-27T17:18:37.167Z,26.60
2022-07-27T17:21:09.173Z,26.70
2022-07-27T17:23:39.759Z,26.60
2022-07-27T17:26:08.721Z,26.60
2022-07-27T17:28:39.141Z,26.60
2022-07-27T17:31:09.353Z,26.60
2022-07-27T17:33:38.129Z,26.60
2022-07-27T17:36:09.709Z,26.60
2022-07-27T17:38:43.975Z,26.50
2022-07-27T17:41:12.374Z,26.40
2022-07-27T17:43:40.621Z,26.30
2022-07-27T17:46:09.690Z,26.30
2022-07-27T17:48:38.806Z,26.30
2022-07-27T17:51:10.346Z,26.00
2022-07-27T17:53:38.670Z,26.00
2022-07-27T17:56:08.546Z,25.80
2022-07-27T17:58:36.864Z,25.70
2022-07-27T18:01:05.037Z,25.60
2022-07-27T18:03:33.299Z,25.60
2022-07-27T18:06:01.476Z,25.70
2022-07-27T18:08:29.642Z,25.60
2022-07-27T18:10:57.547Z,25.60
2022-07-27T18:13:38.970Z,25.60
2022-07-27T18:16:09.056Z,25.50
2022-07-27T18:18:37.310Z,25.40
2022-07-27T18:21:06.241Z,25.40
2022-07-27T18:23:34.116Z,25.20
2022-07-27T18:26:02.307Z,25.10
2022-07-27T18:28:38.763Z,25.10
2022-07-27T18:31:08.461Z,25.10
2022-07-27T18:33:36.988Z,25.10
2022-07-27T18:36:06.327Z,25.00
2022-07-27T18:38:34.362Z,24.90
2022-07-27T18:41:02.967Z,24.90
2022-07-27T18:43:32.249Z,24.90
2022-07-27T18:46:00.501Z,24.80
2022-07-27T18:48:28.881Z,24.80
2022-07-27T18:50:57.361Z,24.70
2022-07-27T18:53:25.387Z,24.60
2022-07-27T18:55:56.554Z,24.60
2022-07-27T18:58:25.723Z,24.50
2022-07-27T19:00:55.579Z,24.40
2022-07-27T19:03:24.753Z,24.30
2022-07-27T19:05:56.125Z,24.30
2022-07-27T19:08:24.888Z,24.20
2022-07-27T19:10:52.987Z,24.20
2022-07-27T19:13:21.093Z,24.00
2022-07-27T19:15:48.962Z,24.00
2022-07-27T19:18:19.001Z,23.90
2022-07-27T19:20:47.305Z,23.90
2022-07-27T19:23:15.264Z,23.80
2022-07-27T19:25:45.059Z,23.80
2022-07-27T19:28:15.702Z,23.80
2022-07-27T19:30:43.752Z,23.70
2022-07-27T19:33:11.723Z,23.70
2022-07-27T19:35:40.956Z,23.70
2022-07-27T19:38:09.347Z,23.70
2022-07-27T19:40:45.658Z,23.70
2022-07-27T19:43:14.653Z,23.60
2022-07-27T19:45:42.912Z,23.60
2022-07-27T19:48:10.897Z,23.50
2022-07-27T19:50:41.231Z,23.40
2022-07-27T19:53:09.939Z,23.40
2022-07-27T19:55:37.864Z,23.40
2022-07-27T19:58:05.731Z,23.40
2022-07-27T20:00:33.665Z,23.30
2022-07-27T20:03:01.604Z,23.20
2022-07-27T20:05:29.785Z,23.10
2022-07-27T20:07:58.934Z,23.20
2022-07-27T20:10:27.260Z,23.20
2022-07-27T20:12:55.138Z,23.10
2022-07-27T20:15:23.090Z,23.20
2022-07-27T20:17:51.582Z,23.10
2022-07-27T20:20:20.204Z,23.00
2022-07-27T20:22:48.086Z,23.00
2022-07-27T20:25:18.525Z,22.90
2022-07-27T20:27:47.070Z,22.90
2022-07-27T20:30:17.188Z,22.80
2022-07-27T20:32:45.836Z,22.80
2022-07-27T20:35:13.757Z,22.80
2022-07-27T20:37:42.318Z,22.70
2022-07-27T20:40:11.749Z,22.70
2022-07-27T20:42:41.527Z,22.60
2022-07-27T20:45:11.382Z,22.60
2022-07-27T20:47:39.519Z,22.60
2022-07-27T20:50:09.018Z,22.60
2022-07-27T20:52:37.111Z,22.60
2022-07-27T20:55:05.916Z,22.60
2022-07-27T20:57:33.925Z,22.60
2022-07-27T21:00:03.187Z,22.60
2022-07-27T21:02:31.260Z,22.50
2022-07-27T21:04:59.536Z,22.50
2022-07-27T21:07:28.034Z,22.40
2022-07-27T21:09:57.003Z,22.30
2022-07-27T21:12:24.869Z,22.30
2022-07-27T21:14:52.757Z,22.30
2022-07-27T21:17:21.994Z,22.30
2022-07-27T21:19:49.812Z,22.30
2022-07-27T21:22:17.672Z,22.20
2022-07-27T21:24:45.543Z,22.20
2022-07-27T21:27:15.392Z,22.20
2022-07-27T21:29:47.603Z,22.20
